sensor_id;sensor_type;location;lat;lon;timestamp;temperature;humidity
20885;DHT22;10602;48.000;9.654;2023-04-07T00:00:49;4.90;30.10
20885;DHT22;10602;48.000;9.654;2023-04-07T00:03:17;4.90;36.80
20885;DHT22;10602;48.000;9.654;2023-04-07T00:05:44;4.90;57.30
20885;DHT22;10602;48.000;9.654;2023-04-07T00:08:12;4.90;66.50
20885;DHT22;10602;48.000;9.654;2023-04-07T00:10:42;4.90;74.10
20885;DHT22;10602;48.000;9.654;2023-04-07T00:13:11;4.90;91.60
20885;DHT22;10602;48.000;9.654;2023-04-07T00:15:40;4.90;93.80
20885;DHT22;10602;48.000;9.654;2023-04-07T00:18:08;4.90;93.40
20885;DHT22;10602;48.000;9.654;2023-04-07T00:20:35;4.90;95.80
20885;DHT22;10602;48.000;9.654;2023-04-07T00:23:03;4.90;95.50
20885;DHT22;10602;48.000;9.654;2023-04-07T00:25:32;4.90;96.70
20885;DHT22;10602;48.000;9.654;2023-04-07T00:28:00;4.90;97.40
20885;DHT22;10602;48.000;9.654;2023-04-07T00:30:27;5.00;97.30
20885;DHT22;10602;48.000;9.654;2023-04-07T00:32:55;4.90;96.90
20885;DHT22;10602;48.000;9.654;2023-04-07T00:35:22;4.80;98.20
20885;DHT22;10602;48.000;9.654;2023-04-07T00:37:53;4.90;99.90
20885;DHT22;10602;48.000;9.654;2023-04-07T00:40:22;4.90;99.90
20885;DHT22;10602;48.000;9.654;2023-04-07T00:42:52;4.90;99.90
20885;DHT22;10602;48.000;9.654;2023-04-07T00:50:33;4.80;99.90
20885;DHT22;10602;48.000;9.654;2023-04-07T00:53:00;4.70;99.90
20885;DHT22;10602;48.000;9.654;2023-04-07T00:55:28;4.70;99.90
20885;DHT22;10602;48.000;9.654;2023-04-07T00:57:57;4.70;99.90
20885;DHT22;10602;48.000;9.654;2023-04-07T01:00:25;4.60;99.90
20885;DHT22;10602;48.000;9.654;2023-04-07T01:02:56;4.70;99.90
20885;DHT22;10602;48.000;9.654;2023-04-07T01:05:32;4.70;99.90
20885;DHT22;10602;48.000;9.654;2023-04-07T01:13:30;4.70;99.90
20885;DHT22;10602;48.000;9.654;2023-04-07T01:16:08;4.60;99.90
20885;DHT22;10602;48.000;9.654;2023-04-07T01:18:43;4.60;99.90
20885;DHT22;10602;48.000;9.654;2023-04-07T01:21:28;4.60;99.90
20885;DHT22;10602;48.000;9.654;2023-04-07T01:30:12;4.50;99.90
20885;DHT22;10602;48.000;9.654;2023-04-07T01:32:42;4.50;99.90
20885;DHT22;10602;48.000;9.654;2023-04-07T01:35:14;4.40;99.90
20885;DHT22;10602;48.000;9.654;2023-04-07T01:37:44;4.40;99.90
20885;DHT22;10602;48.000;9.654;2023-04-07T01:40:14;4.40;99.90
20885;DHT22;10602;48.000;9.654;2023-04-07T01:42:43;4.40;99.90
20885;DHT22;10602;48.000;9.654;2023-04-07T01:45:17;4.50;99.90
20885;DHT22;10602;48.000;9.654;2023-04-07T01:47:46;4.40;99.90
20885;DHT22;10602;48.000;9.654;2023-04-07T01:50:14;4.50;99.90
20885;DHT22;10602;48.000;9.654;2023-04-07T01:52:43;4.40;99.90
20885;DHT22;10602;48.000;9.654;2023-04-07T01:55:19;4.50;99.90
20885;DHT22;10602;48.000;9.654;2023-04-07T02:04:02;4.40;99.90
20885;DHT22;10602;48.000;9.654;2023-04-07T02:06:43;4.30;99.90
20885;DHT22;10602;48.000;9.654;2023-04-07T02:09:14;4.30;99.90
20885;DHT22;10602;48.000;9.654;2023-04-07T02:11:44;4.30;99.90
20885;DHT22;10602;48.000;9.654;2023-04-07T02:14:13;4.30;99.90
20885;DHT22;10602;48.000;9.654;2023-04-07T02:16:43;4.30;99.90
20885;DHT22;10602;48.000;9.654;2023-04-07T02:19:12;4.30;99.90
20885;DHT22;10602;48.000;9.654;2023-04-07T02:33:59;4.50;99.90
20885;DHT22;10602;48.000;9.654;2023-04-07T02:39:41;4.60;99.90
20885;DHT22;10602;48.000;9.654;2023-04-07T02:42:10;4.60;99.90
20885;DHT22;10602;48.000;9.654;2023-04-07T02:44:37;4.60;99.90
20885;DHT22;10602;48.000;9.654;2023-04-07T02:47:05;4.60;99.90
20885;DHT22;10602;48.000;9.654;2023-04-07T02:49:32;4.60;99.90
20885;DHT22;10602;48.000;9.654;2023-04-07T02:52:00;4.60;99.90
20885;DHT22;10602;48.000;9.654;2023-04-07T02:54:27;4.60;99.90
20885;DHT22;10602;48.000;9.654;2023-04-07T02:56:55;4.60;99.90
20885;DHT22;10602;48.000;9.654;2023-04-07T02:59:22;4.60;99.90
20885;DHT22;10602;48.000;9.654;2023-04-07T03:01:50;4.50;99.90
20885;DHT22;10602;48.000;9.654;2023-04-07T03:04:17;4.50;99.90
20885;DHT22;10602;48.000;9.654;2023-04-07T03:06:45;4.50;99.90
20885;DHT22;10602;48.000;9.654;2023-04-07T03:09:13;4.50;99.90
20885;DHT22;10602;48.000;9.654;2023-04-07T03:11:40;4.60;99.90
20885;DHT22;10602;48.000;9.654;2023-04-07T03:14:08;4.60;99.90
20885;DHT22;10602;48.000;9.654;2023-04-07T03:16:36;4.60;99.90
20885;DHT22;10602;48.000;9.654;2023-04-07T03:19:03;4.60;99.90
20885;DHT22;10602;48.000;9.654;2023-04-07T03:21:31;4.60;99.90
20885;DHT22;10602;48.000;9.654;2023-04-07T03:23:58;4.60;99.90
20885;DHT22;10602;48.000;9.654;2023-04-07T03:26:26;4.60;99.50
20885;DHT22;10602;48.000;9.654;2023-04-07T03:28:53;4.50;99.90
20885;DHT22;10602;48.000;9.654;2023-04-07T03:31:21;4.50;99.90
20885;DHT22;10602;48.000;9.654;2023-04-07T03:33:51;4.40;99.90
20885;DHT22;10602;48.000;9.654;2023-04-07T03:36:18;4.40;99.90
20885;DHT22;10602;48.000;9.654;2023-04-07T03:38:46;4.30;99.90
20885;DHT22;10602;48.000;9.654;2023-04-07T03:41:14;4.30;99.90
20885;DHT22;10602;48.000;9.654;2023-04-07T03:43:42;4.30;99.90
20885;DHT22;10602;48.000;9.654;2023-04-07T03:46:09;4.40;99.90
20885;DHT22;10602;48.000;9.654;2023-04-07T03:48:37;4.40;99.90
20885;DHT22;10602;48.000;9.654;2023-04-07T03:51:04;4.40;99.90
20885;DHT22;10602;48.000;9.654;2023-04-07T03:53:32;4.40;99.90
20885;DHT22;10602;48.000;9.654;2023-04-07T03:55:59;4.50;99.90
20885;DHT22;10602;48.000;9.654;2023-04-07T03:58:27;4.50;99.90
20885;DHT22;10602;48.000;9.654;2023-04-07T04:00:54;4.50;99.90
20885;DHT22;10602;48.000;9.654;2023-04-07T04:03:22;4.50;99.90
20885;DHT22;10602;48.000;9.654;2023-04-07T04:05:49;4.60;99.90
20885;DHT22;10602;48.000;9.654;2023-04-07T04:08:17;4.60;99.90
20885;DHT22;10602;48.000;9.654;2023-04-07T04:10:45;4.60;99.90
20885;DHT22;10602;48.000;9.654;2023-04-07T04:13:12;4.50;99.90
20885;DHT22;10602;48.000;9.654;2023-04-07T04:15:40;4.50;99.90
20885;DHT22;10602;48.000;9.654;2023-04-07T04:18:07;4.50;99.90
20885;DHT22;10602;48.000;9.654;2023-04-07T04:20:35;4.50;99.90
20885;DHT22;10602;48.000;9.654;2023-04-07T04:23:03;4.50;99.90
20885;DHT22;10602;48.000;9.654;2023-04-07T04:25:30;4.50;99.90
20885;DHT22;10602;48.000;9.654;2023-04-07T04:27:58;4.50;99.90
20885;DHT22;10602;48.000;9.654;2023-04-07T04:30:25;4.50;99.90
20885;DHT22;10602;48.000;9.654;2023-04-07T04:32:53;4.50;99.90
20885;DHT22;10602;48.000;9.654;2023-04-07T04:35:20;4.50;99.90
20885;DHT22;10602;48.000;9.654;2023-04-07T04:37:48;4.50;99.90
20885;DHT22;10602;48.000;9.654;2023-04-07T04:40:16;4.50;99.90
20885;DHT22;10602;48.000;9.654;2023-04-07T04:42:43;4.50;99.90
20885;DHT22;10602;48.000;9.654;2023-04-07T04:45:11;4.50;99.90
20885;DHT22;10602;48.000;9.654;2023-04-07T04:47:38;4.50;99.90
20885;DHT22;10602;48.000;9.654;2023-04-07T04:50:07;4.50;99.90
20885;DHT22;10602;48.000;9.654;2023-04-07T04:52:34;4.60;99.80
20885;DHT22;10602;48.000;9.654;2023-04-07T04:55:02;4.60;98.10
20885;DHT22;10602;48.000;9.654;2023-04-07T04:57:29;4.60;96.90
20885;DHT22;10602;48.000;9.654;2023-04-07T04:59:57;4.60;96.70
20885;DHT22;10602;48.000;9.654;2023-04-07T05:02:24;4.60;97.80
20885;DHT22;10602;48.000;9.654;2023-04-07T05:04:52;4.50;94.50
20885;DHT22;10602;48.000;9.654;2023-04-07T05:07:20;4.50;96.70
20885;DHT22;10602;48.000;9.654;2023-04-07T05:09:47;4.50;99.20
20885;DHT22;10602;48.000;9.654;2023-04-07T05:12:15;4.50;98.40
20885;DHT22;10602;48.000;9.654;2023-04-07T05:14:42;4.40;96.70
20885;DHT22;10602;48.000;9.654;2023-04-07T05:17:10;4.40;96.80
20885;DHT22;10602;48.000;9.654;2023-04-07T05:19:37;4.40;99.90
20885;DHT22;10602;48.000;9.654;2023-04-07T05:22:05;4.40;99.90
20885;DHT22;10602;48.000;9.654;2023-04-07T05:24:32;4.40;99.90
20885;DHT22;10602;48.000;9.654;2023-04-07T05:27:00;4.40;99.90
20885;DHT22;10602;48.000;9.654;2023-04-07T05:29:27;4.40;99.90
20885;DHT22;10602;48.000;9.654;2023-04-07T05:31:55;4.50;99.90
20885;DHT22;10602;48.000;9.654;2023-04-07T05:34:22;4.50;99.90
20885;DHT22;10602;48.000;9.654;2023-04-07T05:36:50;4.50;99.90
20885;DHT22;10602;48.000;9.654;2023-04-07T05:39:17;4.60;99.90
20885;DHT22;10602;48.000;9.654;2023-04-07T05:41:45;4.60;99.90
20885;DHT22;10602;48.000;9.654;2023-04-07T05:44:12;4.70;99.90
20885;DHT22;10602;48.000;9.654;2023-04-07T05:46:40;4.80;99.90
20885;DHT22;10602;48.000;9.654;2023-04-07T05:49:07;4.90;99.90
20885;DHT22;10602;48.000;9.654;2023-04-07T05:51:35;5.00;97.20
20885;DHT22;10602;48.000;9.654;2023-04-07T05:54:02;5.00;92.30
20885;DHT22;10602;48.000;9.654;2023-04-07T05:56:30;5.10;89.00
20885;DHT22;10602;48.000;9.654;2023-04-07T05:58:58;5.10;84.00
20885;DHT22;10602;48.000;9.654;2023-04-07T06:01:27;5.20;75.00
20885;DHT22;10602;48.000;9.654;2023-04-07T06:03:55;5.30;64.50
20885;DHT22;10602;48.000;9.654;2023-04-07T06:06:24;5.40;58.40
20885;DHT22;10602;48.000;9.654;2023-04-07T06:08:52;5.50;52.90
20885;DHT22;10602;48.000;9.654;2023-04-07T06:11:20;5.50;38.20
20885;DHT22;10602;48.000;9.654;2023-04-07T06:13:47;5.60;28.10
20885;DHT22;10602;48.000;9.654;2023-04-07T06:16:15;5.60;17.10
20885;DHT22;10602;48.000;9.654;2023-04-07T06:18:42;5.50;1.00
20885;DHT22;10602;48.000;9.654;2023-04-07T06:21:10;5.50;1.00
20885;DHT22;10602;48.000;9.654;2023-04-07T06:23:37;5.50;1.00
20885;DHT22;10602;48.000;9.654;2023-04-07T06:26:05;5.60;1.00
20885;DHT22;10602;48.000;9.654;2023-04-07T06:28:32;5.70;1.00
20885;DHT22;10602;48.000;9.654;2023-04-07T06:31:00;5.80;6.30
20885;DHT22;10602;48.000;9.654;2023-04-07T06:33:27;6.00;13.80
20885;DHT22;10602;48.000;9.654;2023-04-07T06:35:55;6.20;10.70
20885;DHT22;10602;48.000;9.654;2023-04-07T06:38:23;6.40;1.00
20885;DHT22;10602;48.000;9.654;2023-04-07T06:40:51;6.60;1.00
20885;DHT22;10602;48.000;9.654;2023-04-07T06:43:18;6.90;1.00
20885;DHT22;10602;48.000;9.654;2023-04-07T06:45:46;7.00;1.00
20885;DHT22;10602;48.000;9.654;2023-04-07T06:48:13;7.20;1.00
20885;DHT22;10602;48.000;9.654;2023-04-07T06:50:44;7.40;1.00
20885;DHT22;10602;48.000;9.654;2023-04-07T06:53:10;7.60;99.90
20885;DHT22;10602;48.000;9.654;2023-04-07T06:55:38;7.70;99.90
20885;DHT22;10602;48.000;9.654;2023-04-07T06:58:05;7.70;1.00
20885;DHT22;10602;48.000;9.654;2023-04-07T07:00:33;7.80;1.00
20885;DHT22;10602;48.000;9.654;2023-04-07T07:03:01;8.00;22.70
20885;DHT22;10602;48.000;9.654;2023-04-07T07:05:29;8.10;99.90
20885;DHT22;10602;48.000;9.654;2023-04-07T07:07:56;8.20;99.90
20885;DHT22;10602;48.000;9.654;2023-04-07T07:10:24;8.50;99.90
20885;DHT22;10602;48.000;9.654;2023-04-07T07:12:51;8.60;99.90
20885;DHT22;10602;48.000;9.654;2023-04-07T07:15:19;8.90;1.00
20885;DHT22;10602;48.000;9.654;2023-04-07T07:17:46;8.90;1.00
20885;DHT22;10602;48.000;9.654;2023-04-07T07:20:14;9.00;1.00
20885;DHT22;10602;48.000;9.654;2023-04-07T07:22:42;9.20;1.00
20885;DHT22;10602;48.000;9.654;2023-04-07T07:25:09;9.50;1.00
20885;DHT22;10602;48.000;9.654;2023-04-07T07:27:37;9.80;99.90
20885;DHT22;10602;48.000;9.654;2023-04-07T07:30:05;9.80;99.90
20885;DHT22;10602;48.000;9.654;2023-04-07T07:32:33;10.00;99.90
20885;DHT22;10602;48.000;9.654;2023-04-07T07:35:00;10.40;99.90
20885;DHT22;10602;48.000;9.654;2023-04-07T07:37:28;10.70;99.90
20885;DHT22;10602;48.000;9.654;2023-04-07T07:39:56;11.00;73.40
20885;DHT22;10602;48.000;9.654;2023-04-07T07:42:23;11.20;1.00
20885;DHT22;10602;48.000;9.654;2023-04-07T07:44:51;11.20;1.00
20885;DHT22;10602;48.000;9.654;2023-04-07T07:47:20;11.40;1.00
20885;DHT22;10602;48.000;9.654;2023-04-07T07:49:48;11.60;39.90
20885;DHT22;10602;48.000;9.654;2023-04-07T07:52:15;11.90;62.00
20885;DHT22;10602;48.000;9.654;2023-04-07T07:54:43;12.10;1.00
20885;DHT22;10602;48.000;9.654;2023-04-07T07:57:11;12.10;1.00
20885;DHT22;10602;48.000;9.654;2023-04-07T07:59:38;12.00;1.00
20885;DHT22;10602;48.000;9.654;2023-04-07T08:02:07;12.20;1.00
20885;DHT22;10602;48.000;9.654;2023-04-07T08:04:36;12.50;1.00
20885;DHT22;10602;48.000;9.654;2023-04-07T08:07:05;12.80;1.00
20885;DHT22;10602;48.000;9.654;2023-04-07T08:09:32;12.80;1.00
20885;DHT22;10602;48.000;9.654;2023-04-07T08:12:00;13.20;1.00
20885;DHT22;10602;48.000;9.654;2023-04-07T08:14:28;13.20;1.00
20885;DHT22;10602;48.000;9.654;2023-04-07T08:16:56;13.00;1.00
20885;DHT22;10602;48.000;9.654;2023-04-07T08:19:24;13.00;1.00
20885;DHT22;10602;48.000;9.654;2023-04-07T08:21:52;13.10;1.00
20885;DHT22;10602;48.000;9.654;2023-04-07T08:24:19;13.40;1.00
20885;DHT22;10602;48.000;9.654;2023-04-07T08:26:47;13.50;1.00
20885;DHT22;10602;48.000;9.654;2023-04-07T08:29:15;13.40;1.00
20885;DHT22;10602;48.000;9.654;2023-04-07T08:31:44;13.60;1.00
20885;DHT22;10602;48.000;9.654;2023-04-07T08:34:12;14.00;1.00
20885;DHT22;10602;48.000;9.654;2023-04-07T08:36:40;14.20;1.00
20885;DHT22;10602;48.000;9.654;2023-04-07T08:39:07;13.60;1.00
20885;DHT22;10602;48.000;9.654;2023-04-07T08:41:40;13.40;1.00
20885;DHT22;10602;48.000;9.654;2023-04-07T08:44:10;14.00;1.00
20885;DHT22;10602;48.000;9.654;2023-04-07T08:46:39;14.50;1.00
20885;DHT22;10602;48.000;9.654;2023-04-07T08:49:10;14.80;1.00
20885;DHT22;10602;48.000;9.654;2023-04-07T08:51:44;15.40;1.00
20885;DHT22;10602;48.000;9.654;2023-04-07T08:54:14;15.80;1.00
20885;DHT22;10602;48.000;9.654;2023-04-07T08:56:44;16.40;1.00
20885;DHT22;10602;48.000;9.654;2023-04-07T08:59:13;16.60;1.00
20885;DHT22;10602;48.000;9.654;2023-04-07T09:01:43;16.40;1.00
20885;DHT22;10602;48.000;9.654;2023-04-07T09:04:12;16.60;1.00
20885;DHT22;10602;48.000;9.654;2023-04-07T09:06:40;16.90;1.00
20885;DHT22;10602;48.000;9.654;2023-04-07T09:09:07;16.40;1.00
20885;DHT22;10602;48.000;9.654;2023-04-07T09:11:37;16.80;1.00
20885;DHT22;10602;48.000;9.654;2023-04-07T09:14:05;16.90;1.00
20885;DHT22;10602;48.000;9.654;2023-04-07T09:16:33;17.80;1.00
20885;DHT22;10602;48.000;9.654;2023-04-07T09:19:01;18.40;1.00
20885;DHT22;10602;48.000;9.654;2023-04-07T09:21:48;19.00;1.00
20885;DHT22;10602;48.000;9.654;2023-04-07T09:24:25;18.30;1.00
20885;DHT22;10602;48.000;9.654;2023-04-07T09:27:12;18.40;1.00
20885;DHT22;10602;48.000;9.654;2023-04-07T09:29:42;18.40;1.00
20885;DHT22;10602;48.000;9.654;2023-04-07T09:32:10;18.70;1.00
20885;DHT22;10602;48.000;9.654;2023-04-07T09:34:39;18.10;1.00
20885;DHT22;10602;48.000;9.654;2023-04-07T09:37:07;17.70;1.00
20885;DHT22;10602;48.000;9.654;2023-04-07T09:39:51;17.80;1.00
20885;DHT22;10602;48.000;9.654;2023-04-07T09:42:19;18.50;1.00
20885;DHT22;10602;48.000;9.654;2023-04-07T09:44:47;19.00;1.00
20885;DHT22;10602;48.000;9.654;2023-04-07T09:47:15;19.70;1.00
20885;DHT22;10602;48.000;9.654;2023-04-07T09:49:52;20.70;1.00
20885;DHT22;10602;48.000;9.654;2023-04-07T09:52:23;21.30;1.00
20885;DHT22;10602;48.000;9.654;2023-04-07T09:54:50;22.00;1.00
20885;DHT22;10602;48.000;9.654;2023-04-07T09:57:20;21.80;99.90
20885;DHT22;10602;48.000;9.654;2023-04-07T09:59:49;22.10;99.90
20885;DHT22;10602;48.000;9.654;2023-04-07T10:02:23;22.40;99.90
20885;DHT22;10602;48.000;9.654;2023-04-07T10:04:48;22.90;99.90
20885;DHT22;10602;48.000;9.654;2023-04-07T10:07:15;23.80;99.90
20885;DHT22;10602;48.000;9.654;2023-04-07T10:09:43;24.40;99.90
20885;DHT22;10602;48.000;9.654;2023-04-07T10:12:11;24.70;99.90
20885;DHT22;10602;48.000;9.654;2023-04-07T10:14:39;24.90;99.90
20885;DHT22;10602;48.000;9.654;2023-04-07T10:17:08;25.10;99.90
20885;DHT22;10602;48.000;9.654;2023-04-07T10:19:36;25.10;99.90
20885;DHT22;10602;48.000;9.654;2023-04-07T10:22:05;24.40;99.90
20885;DHT22;10602;48.000;9.654;2023-04-07T10:24:50;23.60;99.90
20885;DHT22;10602;48.000;9.654;2023-04-07T10:27:17;22.30;99.90
20885;DHT22;10602;48.000;9.654;2023-04-07T10:29:47;20.50;99.90
20885;DHT22;10602;48.000;9.654;2023-04-07T10:32:15;18.80;99.90
20885;DHT22;10602;48.000;9.654;2023-04-07T10:37:21;17.00;99.90
20885;DHT22;10602;48.000;9.654;2023-04-07T10:39:50;16.50;99.90
20885;DHT22;10602;48.000;9.654;2023-04-07T10:45:05;16.30;99.90
20885;DHT22;10602;48.000;9.654;2023-04-07T10:48:08;16.20;99.90
20885;DHT22;10602;48.000;9.654;2023-04-07T10:52:44;16.30;99.90
20885;DHT22;10602;48.000;9.654;2023-04-07T10:55:33;16.30;99.90
20885;DHT22;10602;48.000;9.654;2023-04-07T10:58:24;16.10;99.90
20885;DHT22;10602;48.000;9.654;2023-04-07T11:03:37;16.70;99.90
20885;DHT22;10602;48.000;9.654;2023-04-07T11:06:12;17.00;99.90
20885;DHT22;10602;48.000;9.654;2023-04-07T11:08:51;16.90;99.90
20885;DHT22;10602;48.000;9.654;2023-04-07T11:11:52;16.90;99.90
20885;DHT22;10602;48.000;9.654;2023-04-07T11:14:34;16.80;99.90
20885;DHT22;10602;48.000;9.654;2023-04-07T11:17:13;16.80;99.90
20885;DHT22;10602;48.000;9.654;2023-04-07T11:20:00;16.60;99.90
20885;DHT22;10602;48.000;9.654;2023-04-07T11:22:57;16.50;99.90
20885;DHT22;10602;48.000;9.654;2023-04-07T12:17:26;14.40;99.90
20885;DHT22;10602;48.000;9.654;2023-04-07T12:23:06;15.00;99.90
20885;DHT22;10602;48.000;9.654;2023-04-07T12:37:26;15.60;99.90
20885;DHT22;10602;48.000;9.654;2023-04-07T12:40:32;15.60;99.90
20885;DHT22;10602;48.000;9.654;2023-04-07T12:43:33;15.30;99.90
20885;DHT22;10602;48.000;9.654;2023-04-07T12:49:54;15.10;99.90
20885;DHT22;10602;48.000;9.654;2023-04-07T12:57:58;14.60;99.90
20885;DHT22;10602;48.000;9.654;2023-04-07T13:04:08;14.20;99.90
20885;DHT22;10602;48.000;9.654;2023-04-07T13:06:28;14.30;99.90
20885;DHT22;10602;48.000;9.654;2023-04-07T13:09:00;14.30;99.90
20885;DHT22;10602;48.000;9.654;2023-04-07T13:11:41;14.10;99.90
20885;DHT22;10602;48.000;9.654;2023-04-07T13:14:23;14.20;99.90
20885;DHT22;10602;48.000;9.654;2023-04-07T13:16:50;14.40;99.90
20885;DHT22;10602;48.000;9.654;2023-04-07T13:19:30;14.10;99.90
20885;DHT22;10602;48.000;9.654;2023-04-07T13:21:57;13.70;99.90
20885;DHT22;10602;48.000;9.654;2023-04-07T13:24:25;13.50;99.90
20885;DHT22;10602;48.000;9.654;2023-04-07T13:26:53;13.40;1.00
20885;DHT22;10602;48.000;9.654;2023-04-07T13:29:21;13.30;1.00
20885;DHT22;10602;48.000;9.654;2023-04-07T13:31:49;13.00;1.00
20885;DHT22;10602;48.000;9.654;2023-04-07T13:34:18;12.70;1.00
20885;DHT22;10602;48.000;9.654;2023-04-07T13:36:47;12.60;1.00
20885;DHT22;10602;48.000;9.654;2023-04-07T13:39:14;12.40;1.00
20885;DHT22;10602;48.000;9.654;2023-04-07T13:41:42;12.20;1.00
20885;DHT22;10602;48.000;9.654;2023-04-07T13:44:09;12.10;1.00
20885;DHT22;10602;48.000;9.654;2023-04-07T13:46:40;12.00;40.10
20885;DHT22;10602;48.000;9.654;2023-04-07T13:49:06;11.80;99.90
20885;DHT22;10602;48.000;9.654;2023-04-07T13:51:34;11.30;1.00
20885;DHT22;10602;48.000;9.654;2023-04-07T13:54:02;10.90;1.00
20885;DHT22;10602;48.000;9.654;2023-04-07T13:56:29;10.80;1.00
20885;DHT22;10602;48.000;9.654;2023-04-07T13:58:57;10.70;1.00
20885;DHT22;10602;48.000;9.654;2023-04-07T14:01:29;10.60;1.00
20885;DHT22;10602;48.000;9.654;2023-04-07T14:03:54;10.60;1.00
20885;DHT22;10602;48.000;9.654;2023-04-07T14:06:22;10.50;1.00
20885;DHT22;10602;48.000;9.654;2023-04-07T14:08:50;10.10;99.90
20885;DHT22;10602;48.000;9.654;2023-04-07T14:11:18;9.30;1.00
20885;DHT22;10602;48.000;9.654;2023-04-07T14:13:48;8.90;1.00
20885;DHT22;10602;48.000;9.654;2023-04-07T14:16:16;8.40;1.00
20885;DHT22;10602;48.000;9.654;2023-04-07T14:18:43;8.20;99.90
20885;DHT22;10602;48.000;9.654;2023-04-07T14:21:12;8.10;99.90
20885;DHT22;10602;48.000;9.654;2023-04-07T14:23:39;8.20;1.00
20885;DHT22;10602;48.000;9.654;2023-04-07T14:26:09;8.30;99.90
20885;DHT22;10602;48.000;9.654;2023-04-07T14:28:37;8.50;1.00
20885;DHT22;10602;48.000;9.654;2023-04-07T14:31:05;8.80;99.90
20885;DHT22;10602;48.000;9.654;2023-04-07T14:33:32;8.90;1.00
20885;DHT22;10602;48.000;9.654;2023-04-07T14:36:00;8.80;1.00
20885;DHT22;10602;48.000;9.654;2023-04-07T14:38:27;8.60;1.00
20885;DHT22;10602;48.000;9.654;2023-04-07T14:40:56;8.30;99.90
20885;DHT22;10602;48.000;9.654;2023-04-07T14:43:24;8.30;1.00
20885;DHT22;10602;48.000;9.654;2023-04-07T14:45:57;8.60;1.00
20885;DHT22;10602;48.000;9.654;2023-04-07T14:48:21;8.70;1.00
20885;DHT22;10602;48.000;9.654;2023-04-07T14:50:48;8.80;99.90
20885;DHT22;10602;48.000;9.654;2023-04-07T14:53:16;8.90;65.30
20885;DHT22;10602;48.000;9.654;2023-04-07T14:55:43;9.00;1.00
20885;DHT22;10602;48.000;9.654;2023-04-07T14:58:11;9.10;7.30
20885;DHT22;10602;48.000;9.654;2023-04-07T15:00:38;9.20;1.00
20885;DHT22;10602;48.000;9.654;2023-04-07T15:03:06;9.40;1.00
20885;DHT22;10602;48.000;9.654;2023-04-07T15:05:33;9.50;1.00
20885;DHT22;10602;48.000;9.654;2023-04-07T15:08:01;9.70;1.00
20885;DHT22;10602;48.000;9.654;2023-04-07T15:10:29;9.70;1.00
20885;DHT22;10602;48.000;9.654;2023-04-07T15:12:58;9.70;67.80
20885;DHT22;10602;48.000;9.654;2023-04-07T15:15:25;9.60;96.90
20885;DHT22;10602;48.000;9.654;2023-04-07T15:17:53;9.40;1.00
20885;DHT22;10602;48.000;9.654;2023-04-07T15:20:20;9.30;99.90
20885;DHT22;10602;48.000;9.654;2023-04-07T15:22:48;9.20;99.90
20885;DHT22;10602;48.000;9.654;2023-04-07T15:25:15;9.20;1.00
20885;DHT22;10602;48.000;9.654;2023-04-07T15:27:43;9.30;1.00
20885;DHT22;10602;48.000;9.654;2023-04-07T15:30:11;9.20;99.90
20885;DHT22;10602;48.000;9.654;2023-04-07T15:32:38;9.20;99.90
20885;DHT22;10602;48.000;9.654;2023-04-07T15:35:06;9.10;96.00
20885;DHT22;10602;48.000;9.654;2023-04-07T15:37:34;9.00;1.00
20885;DHT22;10602;48.000;9.654;2023-04-07T15:40:01;8.90;1.00
20885;DHT22;10602;48.000;9.654;2023-04-07T15:42:29;8.70;1.00
20885;DHT22;10602;48.000;9.654;2023-04-07T15:44:58;8.70;1.00
20885;DHT22;10602;48.000;9.654;2023-04-07T15:47:25;8.50;1.00
20885;DHT22;10602;48.000;9.654;2023-04-07T15:49:53;8.40;1.00
20885;DHT22;10602;48.000;9.654;2023-04-07T15:52:21;8.40;1.00
20885;DHT22;10602;48.000;9.654;2023-04-07T15:54:49;8.30;1.00
20885;DHT22;10602;48.000;9.654;2023-04-07T15:57:16;8.20;1.00
20885;DHT22;10602;48.000;9.654;2023-04-07T15:59:44;8.20;1.00
20885;DHT22;10602;48.000;9.654;2023-04-07T16:02:12;8.00;1.00
20885;DHT22;10602;48.000;9.654;2023-04-07T16:04:40;7.80;1.00
20885;DHT22;10602;48.000;9.654;2023-04-07T16:07:08;7.90;1.00
20885;DHT22;10602;48.000;9.654;2023-04-07T16:09:35;7.90;1.00
20885;DHT22;10602;48.000;9.654;2023-04-07T16:12:03;7.90;1.00
20885;DHT22;10602;48.000;9.654;2023-04-07T16:14:31;7.80;1.00
20885;DHT22;10602;48.000;9.654;2023-04-07T16:16:59;7.80;1.00
20885;DHT22;10602;48.000;9.654;2023-04-07T16:19:27;7.80;1.00
20885;DHT22;10602;48.000;9.654;2023-04-07T16:21:54;7.90;1.00
20885;DHT22;10602;48.000;9.654;2023-04-07T16:24:22;7.90;1.00
20885;DHT22;10602;48.000;9.654;2023-04-07T16:26:50;7.90;1.00
20885;DHT22;10602;48.000;9.654;2023-04-07T16:29:28;8.00;1.00
20885;DHT22;10602;48.000;9.654;2023-04-07T16:31:55;7.90;1.00
20885;DHT22;10602;48.000;9.654;2023-04-07T16:34:23;7.80;1.00
20885;DHT22;10602;48.000;9.654;2023-04-07T16:36:50;7.80;1.00
20885;DHT22;10602;48.000;9.654;2023-04-07T16:39:18;7.60;32.80
20885;DHT22;10602;48.000;9.654;2023-04-07T16:41:45;7.70;46.90
20885;DHT22;10602;48.000;9.654;2023-04-07T16:44:13;7.80;70.20
20885;DHT22;10602;48.000;9.654;2023-04-07T16:46:40;7.80;75.60
20885;DHT22;10602;48.000;9.654;2023-04-07T16:49:10;7.80;91.00
20885;DHT22;10602;48.000;9.654;2023-04-07T16:51:37;7.80;98.10
20885;DHT22;10602;48.000;9.654;2023-04-07T16:54:05;7.80;97.90
20885;DHT22;10602;48.000;9.654;2023-04-07T16:56:32;7.90;99.90
20885;DHT22;10602;48.000;9.654;2023-04-07T16:59:00;7.90;60.20
20885;DHT22;10602;48.000;9.654;2023-04-07T17:01:29;7.90;33.40
20885;DHT22;10602;48.000;9.654;2023-04-07T17:03:58;7.90;26.40
20885;DHT22;10602;48.000;9.654;2023-04-07T17:06:26;7.80;47.80
20885;DHT22;10602;48.000;9.654;2023-04-07T17:08:56;7.60;25.50
20885;DHT22;10602;48.000;9.654;2023-04-07T17:11:25;7.60;31.60
20885;DHT22;10602;48.000;9.654;2023-04-07T17:13:52;7.60;43.80
20885;DHT22;10602;48.000;9.654;2023-04-07T17:16:20;7.60;22.00
20885;DHT22;10602;48.000;9.654;2023-04-07T17:18:47;7.50;16.60
20885;DHT22;10602;48.000;9.654;2023-04-07T17:21:15;7.50;20.20
20885;DHT22;10602;48.000;9.654;2023-04-07T17:23:42;7.50;19.40
20885;DHT22;10602;48.000;9.654;2023-04-07T17:26:10;7.50;22.90
20885;DHT22;10602;48.000;9.654;2023-04-07T17:28:38;7.50;32.20
20885;DHT22;10602;48.000;9.654;2023-04-07T17:31:05;7.40;27.50
20885;DHT22;10602;48.000;9.654;2023-04-07T17:33:33;7.40;22.40
20885;DHT22;10602;48.000;9.654;2023-04-07T17:36:01;7.30;20.10
20885;DHT22;10602;48.000;9.654;2023-04-07T17:38:30;7.20;25.80
20885;DHT22;10602;48.000;9.654;2023-04-07T17:40:58;7.10;45.00
20885;DHT22;10602;48.000;9.654;2023-04-07T17:43:28;6.90;57.70
20885;DHT22;10602;48.000;9.654;2023-04-07T17:45:57;6.90;73.00
20885;DHT22;10602;48.000;9.654;2023-04-07T17:48:24;6.90;68.60
20885;DHT22;10602;48.000;9.654;2023-04-07T17:50:53;6.90;70.40
20885;DHT22;10602;48.000;9.654;2023-04-07T17:53:23;6.90;69.40
20885;DHT22;10602;48.000;9.654;2023-04-07T17:55:51;6.90;78.50
20885;DHT22;10602;48.000;9.654;2023-04-07T17:58:20;6.90;74.40
20885;DHT22;10602;48.000;9.654;2023-04-07T18:00:49;6.90;69.10
20885;DHT22;10602;48.000;9.654;2023-04-07T18:03:16;6.80;68.20
20885;DHT22;10602;48.000;9.654;2023-04-07T18:05:45;6.80;68.90
20885;DHT22;10602;48.000;9.654;2023-04-07T18:08:13;6.80;68.30